sensor_id;sensor_type;location;lat;lon;timestamp;P1;durP1;ratioP1;P2;durP2;ratioP2
44854;SDS011;30591;48.228;16.398;2023-03-11T11:46:04;2.20;;;2.00;;
44854;SDS011;30591;48.228;16.398;2023-03-11T11:51:29;7.27;;;5.67;;
44854;SDS011;30591;48.228;16.398;2023-03-11T11:56:41;2.30;;;2.10;;
44854;SDS011;30591;48.228;16.398;2023-03-11T11:59:19;4.10;;;3.67;;
44854;SDS011;30591;48.228;16.398;2023-03-11T12:10:03;2.95;;;2.53;;
44854;SDS011;30591;48.228;16.398;2023-03-11T12:15:49;3.83;;;1.80;;
44854;SDS011;30591;48.228;16.398;2023-03-11T12:18:36;2.50;;;1.60;;
44854;SDS011;30591;48.228;16.398;2023-03-11T12:21:20;4.27;;;1.90;;
44854;SDS011;30591;48.228;16.398;2023-03-11T12:27:04;2.50;;;2.30;;
44854;SDS011;30591;48.228;16.398;2023-03-11T12:29:48;1.93;;;1.73;;
44854;SDS011;30591;48.228;16.398;2023-03-11T12:32:22;1.27;;;0.93;;
44854;SDS011;30591;48.228;16.398;2023-03-11T12:37:43;1.10;;;0.97;;
44854;SDS011;30591;48.228;16.398;2023-03-11T12:43:56;1.83;;;0.90;;
44854;SDS011;30591;48.228;16.398;2023-03-11T12:46:14;1.63;;;0.90;;
44854;SDS011;30591;48.228;16.398;2023-03-11T12:48:46;1.20;;;0.97;;
44854;SDS011;30591;48.228;16.398;2023-03-11T12:53:53;1.33;;;1.27;;
44854;SDS011;30591;48.228;16.398;2023-03-11T13:04:36;4.27;;;2.27;;
44854;SDS011;30591;48.228;16.398;2023-03-11T13:10:02;2.40;;;1.47;;
44854;SDS011;30591;48.228;16.398;2023-03-11T13:12:37;7.13;;;2.17;;
44854;SDS011;30591;48.228;16.398;2023-03-11T13:25:41;1.10;;;1.00;;
44854;SDS011;30591;48.228;16.398;2023-03-11T13:36:35;2.43;;;2.23;;
44854;SDS011;30591;48.228;16.398;2023-03-11T13:41:44;1.33;;;0.70;;
44854;SDS011;30591;48.228;16.398;2023-03-11T13:44:23;1.63;;;0.90;;
44854;SDS011;30591;48.228;16.398;2023-03-11T13:47:05;1.00;;;0.90;;
44854;SDS011;30591;48.228;16.398;2023-03-11T13:52:43;1.57;;;0.80;;
44854;SDS011;30591;48.228;16.398;2023-03-11T13:55:19;2.00;;;0.90;;
44854;SDS011;30591;48.228;16.398;2023-03-11T13:57:51;1.10;;;1.00;;
44854;SDS011;30591;48.228;16.398;2023-03-11T14:00:23;0.80;;;0.80;;
44854;SDS011;30591;48.228;16.398;2023-03-11T14:02:55;0.63;;;0.60;;
44854;SDS011;30591;48.228;16.398;2023-03-11T14:05:32;0.97;;;0.70;;
44854;SDS011;30591;48.228;16.398;2023-03-11T14:10:54;0.80;;;0.77;;
44854;SDS011;30591;48.228;16.398;2023-03-11T14:13:25;1.10;;;0.60;;
44854;SDS011;30591;48.228;16.398;2023-03-11T14:18:38;0.97;;;0.70;;
44854;SDS011;30591;48.228;16.398;2023-03-11T14:21:17;0.70;;;0.70;;
44854;SDS011;30591;48.228;16.398;2023-03-11T14:23:48;3.17;;;0.60;;
44854;SDS011;30591;48.228;16.398;2023-03-11T14:26:21;1.07;;;0.80;;
44854;SDS011;30591;48.228;16.398;2023-03-11T14:28:56;1.13;;;0.80;;
44854;SDS011;30591;48.228;16.398;2023-03-11T14:31:33;1.17;;;0.80;;
44854;SDS011;30591;48.228;16.398;2023-03-11T14:34:03;2.53;;;0.80;;
44854;SDS011;30591;48.228;16.398;2023-03-11T14:36:48;1.00;;;0.87;;
44854;SDS011;30591;48.228;16.398;2023-03-11T14:42:06;1.77;;;1.40;;
44854;SDS011;30591;48.228;16.398;2023-03-11T14:45:03;1.43;;;1.17;;
44854;SDS011;30591;48.228;16.398;2023-03-11T14:47:42;1.43;;;1.30;;
44854;SDS011;30591;48.228;16.398;2023-03-11T14:50:19;1.63;;;1.50;;
44854;SDS011;30591;48.228;16.398;2023-03-11T14:53:00;2.13;;;1.00;;
44854;SDS011;30591;48.228;16.398;2023-03-11T14:55:40;1.40;;;1.27;;
44854;SDS011;30591;48.228;16.398;2023-03-11T14:58:20;2.33;;;0.93;;
44854;SDS011;30591;48.228;16.398;2023-03-11T15:01:04;1.60;;;0.90;;
44854;SDS011;30591;48.228;16.398;2023-03-11T15:03:43;2.20;;;0.90;;
44854;SDS011;30591;48.228;16.398;2023-03-11T15:06:15;3.07;;;1.97;;
44854;SDS011;30591;48.228;16.398;2023-03-11T15:08:46;2.67;;;1.80;;
44854;SDS011;30591;48.228;16.398;2023-03-11T15:11:22;1.87;;;1.30;;
44854;SDS011;30591;48.228;16.398;2023-03-11T15:13:51;1.50;;;1.40;;
44854;SDS011;30591;48.228;16.398;2023-03-11T15:16:28;2.27;;;1.30;;
44854;SDS011;30591;48.228;16.398;2023-03-11T15:19:00;1.83;;;1.30;;
44854;SDS011;30591;48.228;16.398;2023-03-11T15:21:50;1.40;;;1.30;;
44854;SDS011;30591;48.228;16.398;2023-03-11T15:24:21;1.70;;;1.20;;
44854;SDS011;30591;48.228;16.398;2023-03-11T15:29:35;1.10;;;1.00;;
44854;SDS011;30591;48.228;16.398;2023-03-11T15:37:36;2.40;;;1.87;;
44854;SDS011;30591;48.228;16.398;2023-03-11T15:40:17;2.13;;;1.93;;
44854;SDS011;30591;48.228;16.398;2023-03-11T15:45:41;3.53;;;2.20;;
44854;SDS011;30591;48.228;16.398;2023-03-11T15:48:09;2.13;;;1.87;;
44854;SDS011;30591;48.228;16.398;2023-03-11T15:50:45;5.33;;;2.67;;
44854;SDS011;30591;48.228;16.398;2023-03-11T15:53:21;3.67;;;2.70;;
44854;SDS011;30591;48.228;16.398;2023-03-11T15:55:51;3.90;;;2.70;;
44854;SDS011;30591;48.228;16.398;2023-03-11T15:58:20;3.53;;;2.30;;
44854;SDS011;30591;48.228;16.398;2023-03-11T16:00:51;3.60;;;2.10;;
44854;SDS011;30591;48.228;16.398;2023-03-11T16:03:22;2.47;;;2.10;;
44854;SDS011;30591;48.228;16.398;2023-03-11T16:05:50;2.73;;;2.23;;
44854;SDS011;30591;48.228;16.398;2023-03-11T16:08:17;4.33;;;3.23;;
44854;SDS011;30591;48.228;16.398;2023-03-11T16:10:44;4.17;;;2.30;;
44854;SDS011;30591;48.228;16.398;2023-03-11T16:13:12;1.97;;;1.77;;
44854;SDS011;30591;48.228;16.398;2023-03-11T16:15:40;4.10;;;2.70;;
44854;SDS011;30591;48.228;16.398;2023-03-11T16:18:08;2.20;;;2.00;;
44854;SDS011;30591;48.228;16.398;2023-03-11T16:20:51;2.20;;;2.00;;
44854;SDS011;30591;48.228;16.398;2023-03-11T16:23:21;2.23;;;1.87;;
44854;SDS011;30591;48.228;16.398;2023-03-11T16:25:52;8.03;;;4.90;;
44854;SDS011;30591;48.228;16.398;2023-03-11T16:28:27;3.90;;;2.80;;
44854;SDS011;30591;48.228;16.398;2023-03-11T16:30:54;8.33;;;5.37;;
44854;SDS011;30591;48.228;16.398;2023-03-11T16:33:22;11.93;;;7.27;;
44854;SDS011;30591;48.228;16.398;2023-03-11T16:35:49;8.70;;;5.10;;
44854;SDS011;30591;48.228;16.398;2023-03-11T16:38:17;8.20;;;4.93;;
44854;SDS011;30591;48.228;16.398;2023-03-11T16:40:45;7.93;;;5.90;;
44854;SDS011;30591;48.228;16.398;2023-03-11T16:43:22;4.90;;;3.30;;
44854;SDS011;30591;48.228;16.398;2023-03-11T16:45:49;4.03;;;3.00;;
44854;SDS011;30591;48.228;16.398;2023-03-11T16:48:19;3.60;;;2.80;;
44854;SDS011;30591;48.228;16.398;2023-03-11T16:50:48;3.47;;;2.23;;
44854;SDS011;30591;48.228;16.398;2023-03-11T16:53:16;3.33;;;2.53;;
44854;SDS011;30591;48.228;16.398;2023-03-11T16:56:24;2.97;;;1.97;;
44854;SDS011;30591;48.228;16.398;2023-03-11T16:58:51;3.43;;;1.60;;
44854;SDS011;30591;48.228;16.398;2023-03-11T17:01:19;3.43;;;2.00;;
44854;SDS011;30591;48.228;16.398;2023-03-11T17:03:48;2.93;;;2.20;;
44854;SDS011;30591;48.228;16.398;2023-03-11T17:06:16;2.83;;;2.07;;
44854;SDS011;30591;48.228;16.398;2023-03-11T17:08:45;7.63;;;3.90;;
44854;SDS011;30591;48.228;16.398;2023-03-11T17:11:16;11.43;;;10.23;;
44854;SDS011;30591;48.228;16.398;2023-03-11T17:13:45;9.60;;;8.00;;
44854;SDS011;30591;48.228;16.398;2023-03-11T17:16:13;12.43;;;8.80;;
44854;SDS011;30591;48.228;16.398;2023-03-11T17:18:41;16.13;;;10.13;;
44854;SDS011;30591;48.228;16.398;2023-03-11T17:21:09;9.93;;;6.93;;
44854;SDS011;30591;48.228;16.398;2023-03-11T17:23:38;7.10;;;3.87;;
44854;SDS011;30591;48.228;16.398;2023-03-11T17:26:10;7.03;;;4.13;;
44854;SDS011;30591;48.228;16.398;2023-03-11T17:28:42;5.13;;;3.70;;
44854;SDS011;30591;48.228;16.398;2023-03-11T17:31:10;5.50;;;5.00;;
44854;SDS011;30591;48.228;16.398;2023-03-11T17:33:39;3.30;;;2.90;;
44854;SDS011;30591;48.228;16.398;2023-03-11T17:36:07;4.70;;;3.57;;
44854;SDS011;30591;48.228;16.398;2023-03-11T17:38:37;4.80;;;2.60;;
44854;SDS011;30591;48.228;16.398;2023-03-11T17:41:07;5.87;;;5.20;;
44854;SDS011;30591;48.228;16.398;2023-03-11T17:43:38;4.20;;;3.03;;
44854;SDS011;30591;48.228;16.398;2023-03-11T17:46:07;6.90;;;2.53;;
44854;SDS011;30591;48.228;16.398;2023-03-11T17:48:42;5.53;;;3.20;;
44854;SDS011;30591;48.228;16.398;2023-03-11T17:51:12;3.47;;;2.00;;
44854;SDS011;30591;48.228;16.398;2023-03-11T17:53:42;3.80;;;2.13;;
44854;SDS011;30591;48.228;16.398;2023-03-11T17:56:13;4.20;;;3.23;;
44854;SDS011;30591;48.228;16.398;2023-03-11T17:58:42;2.83;;;2.63;;
44854;SDS011;30591;48.228;16.398;2023-03-11T18:01:15;4.27;;;2.57;;
44854;SDS011;30591;48.228;16.398;2023-03-11T18:03:44;4.47;;;3.43;;
44854;SDS011;30591;48.228;16.398;2023-03-11T18:06:11;4.53;;;3.33;;
44854;SDS011;30591;48.228;16.398;2023-03-11T18:08:39;4.13;;;3.37;;
44854;SDS011;30591;48.228;16.398;2023-03-11T18:11:09;5.53;;;3.00;;
44854;SDS011;30591;48.228;16.398;2023-03-11T18:13:38;5.03;;;2.90;;
44854;SDS011;30591;48.228;16.398;2023-03-11T18:16:07;11.73;;;7.93;;
44854;SDS011;30591;48.228;16.398;2023-03-11T18:18:37;3.23;;;2.80;;
44854;SDS011;30591;48.228;16.398;2023-03-11T18:21:06;4.10;;;3.00;;
44854;SDS011;30591;48.228;16.398;2023-03-11T18:23:36;3.30;;;2.40;;
44854;SDS011;30591;48.228;16.398;2023-03-11T18:26:05;8.10;;;4.87;;
44854;SDS011;30591;48.228;16.398;2023-03-11T18:28:34;5.57;;;3.13;;
44854;SDS011;30591;48.228;16.398;2023-03-11T18:31:05;3.67;;;2.60;;
44854;SDS011;30591;48.228;16.398;2023-03-11T18:33:37;3.77;;;2.93;;
44854;SDS011;30591;48.228;16.398;2023-03-11T18:36:25;4.63;;;2.43;;
44854;SDS011;30591;48.228;16.398;2023-03-11T18:38:55;5.20;;;3.63;;
44854;SDS011;30591;48.228;16.398;2023-03-11T18:41:23;4.33;;;2.70;;
44854;SDS011;30591;48.228;16.398;2023-03-11T18:43:52;4.10;;;3.23;;
44854;SDS011;30591;48.228;16.398;2023-03-11T18:46:23;3.83;;;2.83;;
44854;SDS011;30591;48.228;16.398;2023-03-11T18:48:52;2.70;;;2.27;;
44854;SDS011;30591;48.228;16.398;2023-03-11T18:51:20;3.37;;;2.50;;
44854;SDS011;30591;48.228;16.398;2023-03-11T18:53:47;3.47;;;2.43;;
44854;SDS011;30591;48.228;16.398;2023-03-11T18:56:15;6.57;;;3.70;;
44854;SDS011;30591;48.228;16.398;2023-03-11T18:58:43;5.87;;;5.27;;
44854;SDS011;30591;48.228;16.398;2023-03-11T19:01:15;3.43;;;1.90;;
44854;SDS011;30591;48.228;16.398;2023-03-11T19:03:48;3.10;;;1.90;;
44854;SDS011;30591;48.228;16.398;2023-03-11T19:06:17;3.33;;;2.07;;
44854;SDS011;30591;48.228;16.398;2023-03-11T19:08:45;4.57;;;4.13;;
44854;SDS011;30591;48.228;16.398;2023-03-11T19:11:13;3.77;;;2.67;;
44854;SDS011;30591;48.228;16.398;2023-03-11T19:13:42;3.10;;;2.40;;
44854;SDS011;30591;48.228;16.398;2023-03-11T19:16:14;4.00;;;2.27;;
44854;SDS011;30591;48.228;16.398;2023-03-11T19:18:43;4.37;;;2.00;;
44854;SDS011;30591;48.228;16.398;2023-03-11T19:21:12;3.87;;;2.13;;
44854;SDS011;30591;48.228;16.398;2023-03-11T19:23:40;4.03;;;2.60;;
44854;SDS011;30591;48.228;16.398;2023-03-11T19:26:11;6.10;;;3.63;;
44854;SDS011;30591;48.228;16.398;2023-03-11T19:28:39;6.73;;;3.77;;
44854;SDS011;30591;48.228;16.398;2023-03-11T19:31:07;4.20;;;3.20;;
44854;SDS011;30591;48.228;16.398;2023-03-11T19:33:34;10.70;;;6.00;;
44854;SDS011;30591;48.228;16.398;2023-03-11T19:36:03;9.27;;;5.90;;
44854;SDS011;30591;48.228;16.398;2023-03-11T19:38:31;8.53;;;5.57;;
44854;SDS011;30591;48.228;16.398;2023-03-11T19:41:04;6.03;;;4.47;;
44854;SDS011;30591;48.228;16.398;2023-03-11T19:43:36;4.50;;;2.50;;
44854;SDS011;30591;48.228;16.398;2023-03-11T19:46:06;3.50;;;2.80;;
44854;SDS011;30591;48.228;16.398;2023-03-11T19:48:35;5.33;;;3.00;;
44854;SDS011;30591;48.228;16.398;2023-03-11T19:51:03;4.67;;;2.90;;
44854;SDS011;30591;48.228;16.398;2023-03-11T19:53:34;10.77;;;5.00;;
44854;SDS011;30591;48.228;16.398;2023-03-11T19:56:02;4.90;;;2.63;;
44854;SDS011;30591;48.228;16.398;2023-03-11T19:58:30;4.63;;;3.10;;
44854;SDS011;30591;48.228;16.398;2023-03-11T20:00:58;4.83;;;3.23;;
44854;SDS011;30591;48.228;16.398;2023-03-11T20:03:26;9.23;;;6.47;;
44854;SDS011;30591;48.228;16.398;2023-03-11T20:05:55;4.67;;;2.70;;
44854;SDS011;30591;48.228;16.398;2023-03-11T20:08:30;4.10;;;2.80;;
44854;SDS011;30591;48.228;16.398;2023-03-11T20:11:03;5.33;;;3.93;;
44854;SDS011;30591;48.228;16.398;2023-03-11T20:13:32;5.77;;;2.37;;
44854;SDS011;30591;48.228;16.398;2023-03-11T20:16:05;5.00;;;2.50;;
44854;SDS011;30591;48.228;16.398;2023-03-11T20:18:34;7.97;;;3.23;;
44854;SDS011;30591;48.228;16.398;2023-03-11T20:21:11;7.27;;;3.37;;
44854;SDS011;30591;48.228;16.398;2023-03-11T20:23:39;12.00;;;5.53;;
44854;SDS011;30591;48.228;16.398;2023-03-11T20:26:07;3.73;;;2.93;;
44854;SDS011;30591;48.228;16.398;2023-03-11T20:28:38;4.83;;;2.53;;
44854;SDS011;30591;48.228;16.398;2023-03-11T20:31:24;7.20;;;4.03;;
44854;SDS011;30591;48.228;16.398;2023-03-11T20:33:54;8.10;;;3.30;;
44854;SDS011;30591;48.228;16.398;2023-03-11T20:36:27;6.30;;;4.50;;
44854;SDS011;30591;48.228;16.398;2023-03-11T20:38:58;7.67;;;5.07;;
44854;SDS011;30591;48.228;16.398;2023-03-11T20:41:26;6.50;;;4.30;;
44854;SDS011;30591;48.228;16.398;2023-03-11T20:43:55;5.93;;;4.20;;
44854;SDS011;30591;48.228;16.398;2023-03-11T20:46:22;4.63;;;3.40;;
44854;SDS011;30591;48.228;16.398;2023-03-11T20:48:50;6.00;;;3.53;;
44854;SDS011;30591;48.228;16.398;2023-03-11T20:51:17;5.37;;;3.60;;
44854;SDS011;30591;48.228;16.398;2023-03-11T20:53:46;5.60;;;3.73;;
44854;SDS011;30591;48.228;16.398;2023-03-11T20:56:16;5.70;;;2.73;;
44854;SDS011;30591;48.228;16.398;2023-03-11T20:58:46;4.57;;;2.90;;
44854;SDS011;30591;48.228;16.398;2023-03-11T21:01:27;4.70;;;3.23;;
44854;SDS011;30591;48.228;16.398;2023-03-11T21:03:58;5.10;;;3.00;;
44854;SDS011;30591;48.228;16.398;2023-03-11T21:06:31;4.40;;;2.83;;
44854;SDS011;30591;48.228;16.398;2023-03-11T21:09:03;4.17;;;3.07;;
44854;SDS011;30591;48.228;16.398;2023-03-11T21:11:33;3.07;;;2.63;;
44854;SDS011;30591;48.228;16.398;2023-03-11T21:14:00;3.87;;;3.00;;
44854;SDS011;30591;48.228;16.398;2023-03-11T21:16:28;3.80;;;2.73;;
44854;SDS011;30591;48.228;16.398;2023-03-11T21:18:56;4.83;;;2.90;;
44854;SDS011;30591;48.228;16.398;2023-03-11T21:21:24;4.27;;;2.97;;
44854;SDS011;30591;48.228;16.398;2023-03-11T21:23:51;4.30;;;3.47;;
44854;SDS011;30591;48.228;16.398;2023-03-11T21:26:20;5.93;;;3.23;;
44854;SDS011;30591;48.228;16.398;2023-03-11T21:28:47;5.40;;;3.57;;
44854;SDS011;30591;48.228;16.398;2023-03-11T21:31:16;5.43;;;3.20;;
44854;SDS011;30591;48.228;16.398;2023-03-11T21:33:46;6.20;;;3.77;;
44854;SDS011;30591;48.228;16.398;2023-03-11T21:36:14;4.93;;;3.50;;
44854;SDS011;30591;48.228;16.398;2023-03-11T21:38:43;6.30;;;3.53;;
44854;SDS011;30591;48.228;16.398;2023-03-11T21:41:12;7.83;;;4.47;;
44854;SDS011;30591;48.228;16.398;2023-03-11T21:43:43;7.73;;;3.70;;
44854;SDS011;30591;48.228;16.398;2023-03-11T21:46:12;4.40;;;3.60;;
44854;SDS011;30591;48.228;16.398;2023-03-11T21:48:41;6.40;;;3.80;;
44854;SDS011;30591;48.228;16.398;2023-03-11T21:51:09;6.77;;;3.80;;
44854;SDS011;30591;48.228;16.398;2023-03-11T21:53:37;5.50;;;3.87;;
44854;SDS011;30591;48.228;16.398;2023-03-11T21:56:04;5.27;;;3.63;;
44854;SDS011;30591;48.228;16.398;2023-03-11T21:58:32;5.43;;;3.70;;
44854;SDS011;30591;48.228;16.398;2023-03-11T22:01:00;5.93;;;3.80;;
44854;SDS011;30591;48.228;16.398;2023-03-11T22:03:28;7.17;;;4.27;;
44854;SDS011;30591;48.228;16.398;2023-03-11T22:06:02;4.40;;;3.50;;
44854;SDS011;30591;48.228;16.398;2023-03-11T22:08:32;6.70;;;4.30;;
44854;SDS011;30591;48.228;16.398;2023-03-11T22:11:00;6.67;;;4.33;;
44854;SDS011;30591;48.228;16.398;2023-03-11T22:13:29;6.33;;;4.43;;
44854;SDS011;30591;48.228;16.398;2023-03-11T22:15:56;8.20;;;4.83;;
44854;SDS011;30591;48.228;16.398;2023-03-11T22:18:27;10.17;;;4.90;;
44854;SDS011;30591;48.228;16.398;2023-03-11T22:20:56;7.47;;;4.93;;
44854;SDS011;30591;48.228;16.398;2023-03-11T22:23:25;6.93;;;4.37;;
44854;SDS011;30591;48.228;16.398;2023-03-11T22:25:53;6.70;;;4.40;;
44854;SDS011;30591;48.228;16.398;2023-03-11T22:28:21;6.87;;;4.30;;
44854;SDS011;30591;48.228;16.398;2023-03-11T22:30:48;7.40;;;4.30;;
44854;SDS011;30591;48.228;16.398;2023-03-11T22:33:15;7.43;;;4.20;;
44854;SDS011;30591;48.228;16.398;2023-03-11T22:35:53;7.40;;;4.80;;
44854;SDS011;30591;48.228;16.398;2023-03-11T22:38:22;7.00;;;4.40;;
44854;SDS011;30591;48.228;16.398;2023-03-11T22:40:50;6.60;;;4.23;;
44854;SDS011;30591;48.228;16.398;2023-03-11T22:43:17;5.10;;;4.00;;
44854;SDS011;30591;48.228;16.398;2023-03-11T22:45:44;6.23;;;3.87;;
44854;SDS011;30591;48.228;16.398;2023-03-11T22:48:12;6.40;;;4.13;;
44854;SDS011;30591;48.228;16.398;2023-03-11T22:50:40;5.53;;;3.43;;
44854;SDS011;30591;48.228;16.398;2023-03-11T22:53:10;6.20;;;3.70;;
44854;SDS011;30591;48.228;16.398;2023-03-11T22:55:39;5.53;;;3.50;;
44854;SDS011;30591;48.228;16.398;2023-03-11T22:58:07;5.03;;;3.30;;
44854;SDS011;30591;48.228;16.398;2023-03-11T23:00:34;5.23;;;3.30;;
44854;SDS011;30591;48.228;16.398;2023-03-11T23:03:03;5.63;;;3.70;;
44854;SDS011;30591;48.228;16.398;2023-03-11T23:05:31;6.50;;;3.67;;
44854;SDS011;30591;48.228;16.398;2023-03-11T23:08:07;12.40;;;6.07;;
44854;SDS011;30591;48.228;16.398;2023-03-11T23:10:35;13.53;;;6.90;;
44854;SDS011;30591;48.228;16.398;2023-03-11T23:13:05;22.10;;;10.33;;
44854;SDS011;30591;48.228;16.398;2023-03-11T23:15:32;16.43;;;9.10;;
44854;SDS011;30591;48.228;16.398;2023-03-11T23:17:59;11.33;;;7.10;;
44854;SDS011;30591;48.228;16.398;2023-03-11T23:20:27;8.63;;;5.60;;
44854;SDS011;30591;48.228;16.398;2023-03-11T23:22:54;7.80;;;4.33;;
44854;SDS011;30591;48.228;16.398;2023-03-11T23:25:21;6.50;;;4.73;;
44854;SDS011;30591;48.228;16.398;2023-03-11T23:27:49;6.40;;;4.57;;
44854;SDS011;30591;48.228;16.398;2023-03-11T23:30:16;6.70;;;4.07;;
44854;SDS011;30591;48.228;16.398;2023-03-11T23:32:44;6.93;;;4.30;;
44854;SDS011;30591;48.228;16.398;2023-03-11T23:35:11;6.03;;;4.37;;
44854;SDS011;30591;48.228;16.398;2023-03-11T23:37:39;6.87;;;4.37;;
44854;SDS011;30591;48.228;16.398;2023-03-11T23:40:07;6.93;;;4.43;;
44854;SDS011;30591;48.228;16.398;2023-03-11T23:42:36;6.03;;;4.23;;
44854;SDS011;30591;48.228;16.398;2023-03-11T23:45:03;5.30;;;4.20;;
44854;SDS011;30591;48.228;16.398;2023-03-11T23:47:31;6.83;;;4.40;;
44854;SDS011;30591;48.228;16.398;2023-03-11T23:49:59;5.93;;;4.10;;
44854;SDS011;30591;48.228;16.398;2023-03-11T23:52:26;8.23;;;5.33;;
44854;SDS011;30591;48.228;16.398;2023-03-11T23:54:54;7.37;;;4.50;;
44854;SDS011;30591;48.228;16.398;2023-03-11T23:57:21;7.37;;;3.97;;
44854;SDS011;30591;48.228;16.398;2023-03-11T23:59:48;6.13;;;4.27;;
